sensor_id;sensor_type;location;lat;lon;timestamp;temperature;humidity
76384;SHT30;65204;48.606;7.598;2023-04-15T00:00:07;10.30;53.80
76384;SHT30;65204;48.606;7.598;2023-04-15T00:00:39;10.28;53.98
76384;SHT30;65204;48.606;7.598;2023-04-15T00:01:09;10.27;53.98
76384;SHT30;65204;48.606;7.598;2023-04-15T00:01:40;10.27;53.93
76384;SHT30;65204;48.606;7.598;2023-04-15T00:02:16;10.24;53.89
76384;SHT30;65204;48.606;7.598;2023-04-15T00:02:47;10.25;53.97
76384;SHT30;65204;48.606;7.598;2023-04-15T00:03:17;10.24;53.91
76384;SHT30;65204;48.606;7.598;2023-04-15T00:03:50;10.24;54.37
76384;SHT30;65204;48.606;7.598;2023-04-15T00:04:21;10.21;54.27
76384;SHT30;65204;48.606;7.598;2023-04-15T00:04:51;10.21;54.22
76384;SHT30;65204;48.606;7.598;2023-04-15T00:05:22;10.21;54.26
76384;SHT30;65204;48.606;7.598;2023-04-15T00:05:52;10.21;54.35
76384;SHT30;65204;48.606;7.598;2023-04-15T00:06:23;10.20;54.29
76384;SHT30;65204;48.606;7.598;2023-04-15T00:06:53;10.20;54.44
76384;SHT30;65204;48.606;7.598;2023-04-15T00:07:24;10.17;54.31
76384;SHT30;65204;48.606;7.598;2023-04-15T00:07:54;10.18;54.29
76384;SHT30;65204;48.606;7.598;2023-04-15T00:08:25;10.15;54.42
76384;SHT30;65204;48.606;7.598;2023-04-15T00:08:55;10.14;54.37
76384;SHT30;65204;48.606;7.598;2023-04-15T00:09:26;10.15;54.48
76384;SHT30;65204;48.606;7.598;2023-04-15T00:09:56;10.14;54.50
76384;SHT30;65204;48.606;7.598;2023-04-15T00:10:27;10.15;54.64
76384;SHT30;65204;48.606;7.598;2023-04-15T00:10:57;10.14;54.51
76384;SHT30;65204;48.606;7.598;2023-04-15T00:11:31;10.10;54.71
76384;SHT30;65204;48.606;7.598;2023-04-15T00:12:02;10.11;54.80
76384;SHT30;65204;48.606;7.598;2023-04-15T00:12:32;10.11;54.82
76384;SHT30;65204;48.606;7.598;2023-04-15T00:13:03;10.07;54.84
76384;SHT30;65204;48.606;7.598;2023-04-15T00:13:33;10.08;54.85
76384;SHT30;65204;48.606;7.598;2023-04-15T00:14:04;10.05;55.04
76384;SHT30;65204;48.606;7.598;2023-04-15T00:14:35;10.05;54.74
76384;SHT30;65204;48.606;7.598;2023-04-15T00:15:07;10.05;54.79
76384;SHT30;65204;48.606;7.598;2023-04-15T00:15:38;10.05;54.72
76384;SHT30;65204;48.606;7.598;2023-04-15T00:16:09;10.07;54.64
76384;SHT30;65204;48.606;7.598;2023-04-15T00:16:39;10.05;54.67
76384;SHT30;65204;48.606;7.598;2023-04-15T00:17:10;10.08;54.84
76384;SHT30;65204;48.606;7.598;2023-04-15T00:17:40;10.07;54.88
76384;SHT30;65204;48.606;7.598;2023-04-15T00:18:11;10.08;54.79
76384;SHT30;65204;48.606;7.598;2023-04-15T00:18:41;10.07;54.68
76384;SHT30;65204;48.606;7.598;2023-04-15T00:19:11;10.04;54.61
76384;SHT30;65204;48.606;7.598;2023-04-15T00:19:42;10.07;54.46
76384;SHT30;65204;48.606;7.598;2023-04-15T00:20:13;10.05;54.80
76384;SHT30;65204;48.606;7.598;2023-04-15T00:20:44;10.00;54.91
76384;SHT30;65204;48.606;7.598;2023-04-15T00:21:15;10.00;54.69
76384;SHT30;65204;48.606;7.598;2023-04-15T00:21:46;10.01;54.58
76384;SHT30;65204;48.606;7.598;2023-04-15T00:22:16;10.00;54.52
76384;SHT30;65204;48.606;7.598;2023-04-15T00:22:47;10.01;54.72
76384;SHT30;65204;48.606;7.598;2023-04-15T00:23:17;10.00;54.53
76384;SHT30;65204;48.606;7.598;2023-04-15T00:23:48;10.00;54.39
76384;SHT30;65204;48.606;7.598;2023-04-15T00:24:22;10.00;54.40
76384;SHT30;65204;48.606;7.598;2023-04-15T00:24:53;10.00;54.61
76384;SHT30;65204;48.606;7.598;2023-04-15T00:25:23;9.98;54.50
76384;SHT30;65204;48.606;7.598;2023-04-15T00:25:53;9.97;54.58
76384;SHT30;65204;48.606;7.598;2023-04-15T00:26:24;9.97;54.47
76384;SHT30;65204;48.606;7.598;2023-04-15T00:26:54;9.96;54.74
76384;SHT30;65204;48.606;7.598;2023-04-15T00:27:25;9.96;54.50
76384;SHT30;65204;48.606;7.598;2023-04-15T00:27:55;9.93;54.63
76384;SHT30;65204;48.606;7.598;2023-04-15T00:28:25;9.93;54.92
76384;SHT30;65204;48.606;7.598;2023-04-15T00:28:57;9.90;54.90
76384;SHT30;65204;48.606;7.598;2023-04-15T00:29:27;9.89;55.12
76384;SHT30;65204;48.606;7.598;2023-04-15T00:29:57;9.90;54.93
76384;SHT30;65204;48.606;7.598;2023-04-15T00:30:28;9.89;54.93
76384;SHT30;65204;48.606;7.598;2023-04-15T00:30:58;9.91;54.76
76384;SHT30;65204;48.606;7.598;2023-04-15T00:31:29;9.89;54.82
76384;SHT30;65204;48.606;7.598;2023-04-15T00:32:00;9.91;54.85
76384;SHT30;65204;48.606;7.598;2023-04-15T00:32:31;9.89;54.80
76384;SHT30;65204;48.606;7.598;2023-04-15T00:33:01;9.87;54.84
76384;SHT30;65204;48.606;7.598;2023-04-15T00:33:35;9.86;54.83
76384;SHT30;65204;48.606;7.598;2023-04-15T00:34:05;9.83;54.95
76384;SHT30;65204;48.606;7.598;2023-04-15T00:34:36;9.83;54.96
76384;SHT30;65204;48.606;7.598;2023-04-15T00:35:07;9.83;54.93
76384;SHT30;65204;48.606;7.598;2023-04-15T00:35:38;9.86;54.84
76384;SHT30;65204;48.606;7.598;2023-04-15T00:36:08;9.82;55.02
76384;SHT30;65204;48.606;7.598;2023-04-15T00:36:40;9.84;55.25
76384;SHT30;65204;48.606;7.598;2023-04-15T00:37:10;9.82;55.14
76384;SHT30;65204;48.606;7.598;2023-04-15T00:37:41;9.82;55.02
76384;SHT30;65204;48.606;7.598;2023-04-15T00:38:12;9.82;55.00
76384;SHT30;65204;48.606;7.598;2023-04-15T00:38:42;9.82;55.02
76384;SHT30;65204;48.606;7.598;2023-04-15T00:39:13;9.82;55.01
76384;SHT30;65204;48.606;7.598;2023-04-15T00:39:43;9.82;54.98
76384;SHT30;65204;48.606;7.598;2023-04-15T00:40:16;9.82;54.89
76384;SHT30;65204;48.606;7.598;2023-04-15T00:40:48;9.79;54.87
76384;SHT30;65204;48.606;7.598;2023-04-15T00:41:18;9.79;54.93
76384;SHT30;65204;48.606;7.598;2023-04-15T00:41:49;9.77;55.09
76384;SHT30;65204;48.606;7.598;2023-04-15T00:42:19;9.76;55.00
76384;SHT30;65204;48.606;7.598;2023-04-15T00:42:51;9.77;54.93
76384;SHT30;65204;48.606;7.598;2023-04-15T00:43:21;9.80;54.88
76384;SHT30;65204;48.606;7.598;2023-04-15T00:43:52;9.77;54.95
76384;SHT30;65204;48.606;7.598;2023-04-15T00:44:22;9.76;55.20
76384;SHT30;65204;48.606;7.598;2023-04-15T00:44:52;9.79;55.38
76384;SHT30;65204;48.606;7.598;2023-04-15T00:45:25;9.73;55.35
76384;SHT30;65204;48.606;7.598;2023-04-15T00:45:57;9.74;55.31
76384;SHT30;65204;48.606;7.598;2023-04-15T00:46:29;9.73;55.23
76384;SHT30;65204;48.606;7.598;2023-04-15T00:47:00;9.76;55.26
76384;SHT30;65204;48.606;7.598;2023-04-15T00:47:32;9.74;55.21
76384;SHT30;65204;48.606;7.598;2023-04-15T00:48:04;9.73;55.35
76384;SHT30;65204;48.606;7.598;2023-04-15T00:48:35;9.72;55.26
76384;SHT30;65204;48.606;7.598;2023-04-15T00:49:06;9.73;55.34
76384;SHT30;65204;48.606;7.598;2023-04-15T00:49:36;9.73;55.35
76384;SHT30;65204;48.606;7.598;2023-04-15T00:50:07;9.74;55.40
76384;SHT30;65204;48.606;7.598;2023-04-15T00:50:38;9.72;55.50
76384;SHT30;65204;48.606;7.598;2023-04-15T00:51:09;9.69;55.60
76384;SHT30;65204;48.606;7.598;2023-04-15T00:51:39;9.67;55.57
76384;SHT30;65204;48.606;7.598;2023-04-15T00:52:10;9.67;55.80
76384;SHT30;65204;48.606;7.598;2023-04-15T00:52:41;9.67;55.74
76384;SHT30;65204;48.606;7.598;2023-04-15T00:53:11;9.66;55.68
76384;SHT30;65204;48.606;7.598;2023-04-15T00:53:41;9.67;55.52
76384;SHT30;65204;48.606;7.598;2023-04-15T00:54:12;9.66;55.75
76384;SHT30;65204;48.606;7.598;2023-04-15T00:54:43;9.64;55.75
76384;SHT30;65204;48.606;7.598;2023-04-15T00:55:14;9.63;55.62
76384;SHT30;65204;48.606;7.598;2023-04-15T00:55:45;9.64;55.89
76384;SHT30;65204;48.606;7.598;2023-04-15T00:56:15;9.63;55.82
76384;SHT30;65204;48.606;7.598;2023-04-15T00:56:45;9.62;55.82
76384;SHT30;65204;48.606;7.598;2023-04-15T00:57:16;9.62;55.82
76384;SHT30;65204;48.606;7.598;2023-04-15T00:57:47;9.62;55.72
76384;SHT30;65204;48.606;7.598;2023-04-15T00:58:18;9.59;55.47
76384;SHT30;65204;48.606;7.598;2023-04-15T00:58:48;9.62;55.65
76384;SHT30;65204;48.606;7.598;2023-04-15T00:59:20;9.62;55.71
76384;SHT30;65204;48.606;7.598;2023-04-15T00:59:51;9.60;55.59
76384;SHT30;65204;48.606;7.598;2023-04-15T01:00:22;9.59;55.73
76384;SHT30;65204;48.606;7.598;2023-04-15T01:00:54;9.57;55.77
76384;SHT30;65204;48.606;7.598;2023-04-15T01:01:25;9.59;55.64
76384;SHT30;65204;48.606;7.598;2023-04-15T01:01:56;9.57;55.60
76384;SHT30;65204;48.606;7.598;2023-04-15T01:02:26;9.59;55.78
76384;SHT30;65204;48.606;7.598;2023-04-15T01:02:57;9.57;55.58
76384;SHT30;65204;48.606;7.598;2023-04-15T01:03:28;9.59;55.53
76384;SHT30;65204;48.606;7.598;2023-04-15T01:03:59;9.59;55.43
76384;SHT30;65204;48.606;7.598;2023-04-15T01:04:29;9.59;55.34
76384;SHT30;65204;48.606;7.598;2023-04-15T01:05:02;9.59;55.46
76384;SHT30;65204;48.606;7.598;2023-04-15T01:05:33;9.57;55.38
76384;SHT30;65204;48.606;7.598;2023-04-15T01:06:04;9.56;55.36
76384;SHT30;65204;48.606;7.598;2023-04-15T01:06:34;9.56;55.67
76384;SHT30;65204;48.606;7.598;2023-04-15T01:07:04;9.53;55.73
76384;SHT30;65204;48.606;7.598;2023-04-15T01:07:36;9.57;55.48
76384;SHT30;65204;48.606;7.598;2023-04-15T01:08:06;9.56;55.51
76384;SHT30;65204;48.606;7.598;2023-04-15T01:08:37;9.57;55.46
76384;SHT30;65204;48.606;7.598;2023-04-15T01:09:07;9.56;55.45
76384;SHT30;65204;48.606;7.598;2023-04-15T01:09:38;9.54;55.54
76384;SHT30;65204;48.606;7.598;2023-04-15T01:10:08;9.54;55.49
76384;SHT30;65204;48.606;7.598;2023-04-15T01:10:39;9.57;55.40
76384;SHT30;65204;48.606;7.598;2023-04-15T01:11:11;9.53;55.38
76384;SHT30;65204;48.606;7.598;2023-04-15T01:11:42;9.54;55.42
76384;SHT30;65204;48.606;7.598;2023-04-15T01:12:15;9.53;55.48
76384;SHT30;65204;48.606;7.598;2023-04-15T01:12:46;9.54;55.54
76384;SHT30;65204;48.606;7.598;2023-04-15T01:13:16;9.53;55.65
76384;SHT30;65204;48.606;7.598;2023-04-15T01:13:47;9.54;55.60
76384;SHT30;65204;48.606;7.598;2023-04-15T01:14:18;9.53;55.63
76384;SHT30;65204;48.606;7.598;2023-04-15T01:14:48;9.54;55.54
76384;SHT30;65204;48.606;7.598;2023-04-15T01:15:19;9.54;55.54
76384;SHT30;65204;48.606;7.598;2023-04-15T01:15:50;9.54;55.77
76384;SHT30;65204;48.606;7.598;2023-04-15T01:16:21;9.56;55.76
76384;SHT30;65204;48.606;7.598;2023-04-15T01:16:52;9.56;55.64
76384;SHT30;65204;48.606;7.598;2023-04-15T01:17:23;9.57;55.41
76384;SHT30;65204;48.606;7.598;2023-04-15T01:17:56;9.54;55.38
76384;SHT30;65204;48.606;7.598;2023-04-15T01:18:28;9.56;55.33
76384;SHT30;65204;48.606;7.598;2023-04-15T01:18:59;9.57;55.48
76384;SHT30;65204;48.606;7.598;2023-04-15T01:19:30;9.57;55.42
76384;SHT30;65204;48.606;7.598;2023-04-15T01:20:00;9.59;55.30
76384;SHT30;65204;48.606;7.598;2023-04-15T01:20:31;9.57;55.34
76384;SHT30;65204;48.606;7.598;2023-04-15T01:21:02;9.57;55.30
76384;SHT30;65204;48.606;7.598;2023-04-15T01:21:36;9.57;55.32
76384;SHT30;65204;48.606;7.598;2023-04-15T01:22:07;9.56;55.23
76384;SHT30;65204;48.606;7.598;2023-04-15T01:22:38;9.60;55.08
76384;SHT30;65204;48.606;7.598;2023-04-15T01:23:09;9.60;55.20
76384;SHT30;65204;48.606;7.598;2023-04-15T01:23:40;9.63;56.18
76384;SHT30;65204;48.606;7.598;2023-04-15T01:24:10;9.63;56.83
76384;SHT30;65204;48.606;7.598;2023-04-15T01:24:50;9.63;57.75
76384;SHT30;65204;48.606;7.598;2023-04-15T01:25:31;9.59;58.90
76384;SHT30;65204;48.606;7.598;2023-04-15T01:26:02;9.57;57.83
76384;SHT30;65204;48.606;7.598;2023-04-15T01:26:33;9.60;56.91
76384;SHT30;65204;48.606;7.598;2023-04-15T01:27:04;9.54;57.30
76384;SHT30;65204;48.606;7.598;2023-04-15T01:27:37;9.53;57.36
76384;SHT30;65204;48.606;7.598;2023-04-15T01:28:09;9.52;57.17
76384;SHT30;65204;48.606;7.598;2023-04-15T01:28:39;9.49;57.65
76384;SHT30;65204;48.606;7.598;2023-04-15T01:29:10;9.46;57.44
76384;SHT30;65204;48.606;7.598;2023-04-15T01:29:40;9.42;57.56
76384;SHT30;65204;48.606;7.598;2023-04-15T01:30:12;9.42;57.61
76384;SHT30;65204;48.606;7.598;2023-04-15T01:30:42;9.40;57.54
76384;SHT30;65204;48.606;7.598;2023-04-15T01:31:14;9.39;57.66
76384;SHT30;65204;48.606;7.598;2023-04-15T01:31:51;9.36;57.77
76384;SHT30;65204;48.606;7.598;2023-04-15T01:32:22;9.26;58.17
76384;SHT30;65204;48.606;7.598;2023-04-15T01:32:53;9.25;57.83
76384;SHT30;65204;48.606;7.598;2023-04-15T01:33:24;9.22;57.64
76384;SHT30;65204;48.606;7.598;2023-04-15T01:33:54;9.21;57.53
76384;SHT30;65204;48.606;7.598;2023-04-15T01:34:24;9.21;57.46
76384;SHT30;65204;48.606;7.598;2023-04-15T01:34:55;9.21;57.71
76384;SHT30;65204;48.606;7.598;2023-04-15T01:35:25;9.19;58.21
76384;SHT30;65204;48.606;7.598;2023-04-15T01:35:56;9.18;58.11
76384;SHT30;65204;48.606;7.598;2023-04-15T01:36:26;9.16;58.20
76384;SHT30;65204;48.606;7.598;2023-04-15T01:36:57;9.16;57.74
76384;SHT30;65204;48.606;7.598;2023-04-15T01:37:27;9.16;57.57
76384;SHT30;65204;48.606;7.598;2023-04-15T01:38:03;9.16;57.68
76384;SHT30;65204;48.606;7.598;2023-04-15T01:38:36;9.15;57.73
76384;SHT30;65204;48.606;7.598;2023-04-15T01:39:07;9.15;57.76
76384;SHT30;65204;48.606;7.598;2023-04-15T01:39:37;9.15;57.53
76384;SHT30;65204;48.606;7.598;2023-04-15T01:40:08;9.18;57.60
76384;SHT30;65204;48.606;7.598;2023-04-15T01:40:39;9.18;57.57
76384;SHT30;65204;48.606;7.598;2023-04-15T01:41:10;9.15;57.53
76384;SHT30;65204;48.606;7.598;2023-04-15T01:41:40;9.18;57.27
76384;SHT30;65204;48.606;7.598;2023-04-15T01:42:11;9.15;56.98
76384;SHT30;65204;48.606;7.598;2023-04-15T01:42:41;9.18;56.84
76384;SHT30;65204;48.606;7.598;2023-04-15T01:43:12;9.19;56.75
76384;SHT30;65204;48.606;7.598;2023-04-15T01:43:42;9.22;56.59
76384;SHT30;65204;48.606;7.598;2023-04-15T01:44:12;9.21;56.61
76384;SHT30;65204;48.606;7.598;2023-04-15T01:44:43;9.23;56.62
76384;SHT30;65204;48.606;7.598;2023-04-15T01:45:13;9.19;56.53
76384;SHT30;65204;48.606;7.598;2023-04-15T01:45:43;9.21;56.49
76384;SHT30;65204;48.606;7.598;2023-04-15T01:46:14;9.26;56.65
76384;SHT30;65204;48.606;7.598;2023-04-15T01:46:44;9.28;56.63
76384;SHT30;65204;48.606;7.598;2023-04-15T01:47:14;9.26;56.83
76384;SHT30;65204;48.606;7.598;2023-04-15T01:47:45;9.28;56.99
76384;SHT30;65204;48.606;7.598;2023-04-15T01:48:15;9.28;56.93
76384;SHT30;65204;48.606;7.598;2023-04-15T01:48:46;9.29;57.04
76384;SHT30;65204;48.606;7.598;2023-04-15T01:49:16;9.31;57.16
76384;SHT30;65204;48.606;7.598;2023-04-15T01:49:46;9.29;57.18
76384;SHT30;65204;48.606;7.598;2023-04-15T01:50:17;9.32;57.00
76384;SHT30;65204;48.606;7.598;2023-04-15T01:50:48;9.32;57.10
76384;SHT30;65204;48.606;7.598;2023-04-15T01:51:18;9.33;57.18
76384;SHT30;65204;48.606;7.598;2023-04-15T01:51:49;9.36;57.28
76384;SHT30;65204;48.606;7.598;2023-04-15T01:52:19;9.35;57.51
76384;SHT30;65204;48.606;7.598;2023-04-15T01:52:50;9.39;57.04
76384;SHT30;65204;48.606;7.598;2023-04-15T01:53:20;9.42;56.92
76384;SHT30;65204;48.606;7.598;2023-04-15T01:53:50;9.40;56.87
76384;SHT30;65204;48.606;7.598;2023-04-15T01:54:21;9.43;56.70
76384;SHT30;65204;48.606;7.598;2023-04-15T01:54:51;9.43;56.45
76384;SHT30;65204;48.606;7.598;2023-04-15T01:55:22;9.47;56.50
76384;SHT30;65204;48.606;7.598;2023-04-15T01:55:52;9.50;56.33
76384;SHT30;65204;48.606;7.598;2023-04-15T01:56:22;9.49;56.14
76384;SHT30;65204;48.606;7.598;2023-04-15T01:56:53;9.49;56.17
76384;SHT30;65204;48.606;7.598;2023-04-15T01:57:23;9.50;56.15
76384;SHT30;65204;48.606;7.598;2023-04-15T01:57:54;9.50;56.29
76384;SHT30;65204;48.606;7.598;2023-04-15T01:58:24;9.53;56.39
76384;SHT30;65204;48.606;7.598;2023-04-15T01:58:55;9.53;56.65
76384;SHT30;65204;48.606;7.598;2023-04-15T01:59:26;9.53;56.65
76384;SHT30;65204;48.606;7.598;2023-04-15T01:59:56;9.57;57.00
76384;SHT30;65204;48.606;7.598;2023-04-15T02:00:26;9.54;58.38
76384;SHT30;65204;48.606;7.598;2023-04-15T02:00:57;9.56;58.28
76384;SHT30;65204;48.606;7.598;2023-04-15T02:01:27;9.57;58.32
76384;SHT30;65204;48.606;7.598;2023-04-15T02:01:58;9.52;58.25
76384;SHT30;65204;48.606;7.598;2023-04-15T02:02:29;9.53;58.39
76384;SHT30;65204;48.606;7.598;2023-04-15T02:02:59;9.50;58.91
76384;SHT30;65204;48.606;7.598;2023-04-15T02:03:30;9.49;58.97
76384;SHT30;65204;48.606;7.598;2023-04-15T02:04:00;9.46;59.17
76384;SHT30;65204;48.606;7.598;2023-04-15T02:04:30;9.46;58.99
76384;SHT30;65204;48.606;7.598;2023-04-15T02:05:01;9.46;58.80
76384;SHT30;65204;48.606;7.598;2023-04-15T02:05:34;9.47;59.02
76384;SHT30;65204;48.606;7.598;2023-04-15T02:06:04;9.46;58.90
76384;SHT30;65204;48.606;7.598;2023-04-15T02:06:35;9.44;58.71
76384;SHT30;65204;48.606;7.598;2023-04-15T02:07:05;9.46;58.41
76384;SHT30;65204;48.606;7.598;2023-04-15T02:07:36;9.44;58.22
76384;SHT30;65204;48.606;7.598;2023-04-15T02:08:07;9.43;57.98
76384;SHT30;65204;48.606;7.598;2023-04-15T02:08:38;9.42;57.85
76384;SHT30;65204;48.606;7.598;2023-04-15T02:09:08;9.46;57.61
76384;SHT30;65204;48.606;7.598;2023-04-15T02:09:39;9.46;57.40
76384;SHT30;65204;48.606;7.598;2023-04-15T02:10:10;9.44;57.27
76384;SHT30;65204;48.606;7.598;2023-04-15T02:10:42;9.46;56.97
76384;SHT30;65204;48.606;7.598;2023-04-15T02:11:12;9.47;56.99
76384;SHT30;65204;48.606;7.598;2023-04-15T02:11:43;9.47;57.05
76384;SHT30;65204;48.606;7.598;2023-04-15T02:12:13;9.44;57.02
76384;SHT30;65204;48.606;7.598;2023-04-15T02:12:44;9.43;57.03
76384;SHT30;65204;48.606;7.598;2023-04-15T02:13:14;9.49;56.93
76384;SHT30;65204;48.606;7.598;2023-04-15T02:13:46;9.46;57.16
76384;SHT30;65204;48.606;7.598;2023-04-15T02:14:16;9.47;57.18
76384;SHT30;65204;48.606;7.598;2023-04-15T02:14:46;9.46;57.15
76384;SHT30;65204;48.606;7.598;2023-04-15T02:15:17;9.50;57.26
76384;SHT30;65204;48.606;7.598;2023-04-15T02:15:48;9.50;57.43
76384;SHT30;65204;48.606;7.598;2023-04-15T02:16:18;9.47;57.31
76384;SHT30;65204;48.606;7.598;2023-04-15T02:16:49;9.47;57.16
76384;SHT30;65204;48.606;7.598;2023-04-15T02:17:19;9.50;57.14
76384;SHT30;65204;48.606;7.598;2023-04-15T02:17:49;9.49;56.98
76384;SHT30;65204;48.606;7.598;2023-04-15T02:18:21;9.52;57.00
76384;SHT30;65204;48.606;7.598;2023-04-15T02:18:51;9.53;56.97
76384;SHT30;65204;48.606;7.598;2023-04-15T02:19:22;9.52;56.54
76384;SHT30;65204;48.606;7.598;2023-04-15T02:19:54;9.52;56.44
76384;SHT30;65204;48.606;7.598;2023-04-15T02:20:25;9.52;56.44
76384;SHT30;65204;48.606;7.598;2023-04-15T02:20:55;9.52;56.39
76384;SHT30;65204;48.606;7.598;2023-04-15T02:21:27;9.52;56.34
76384;SHT30;65204;48.606;7.598;2023-04-15T02:21:58;9.50;56.15
76384;SHT30;65204;48.606;7.598;2023-04-15T02:22:29;9.52;55.98
76384;SHT30;65204;48.606;7.598;2023-04-15T02:22:59;9.56;56.16
76384;SHT30;65204;48.606;7.598;2023-04-15T02:23:30;9.54;55.76
76384;SHT30;65204;48.606;7.598;2023-04-15T02:24:00;9.54;55.59
76384;SHT30;65204;48.606;7.598;2023-04-15T02:24:31;9.56;55.60
76384;SHT30;65204;48.606;7.598;2023-04-15T02:25:02;9.56;55.57
76384;SHT30;65204;48.606;7.598;2023-04-15T02:25:32;9.56;55.56
76384;SHT30;65204;48.606;7.598;2023-04-15T02:26:03;9.59;55.52
76384;SHT30;65204;48.606;7.598;2023-04-15T02:26:33;9.59;55.45
76384;SHT30;65204;48.606;7.598;2023-04-15T02:27:03;9.59;55.52
76384;SHT30;65204;48.606;7.598;2023-04-15T02:27:35;9.59;55.54
76384;SHT30;65204;48.606;7.598;2023-04-15T02:28:05;9.60;55.60
76384;SHT30;65204;48.606;7.598;2023-04-15T02:28:35;9.60;55.56
76384;SHT30;65204;48.606;7.598;2023-04-15T02:29:06;9.60;55.61
76384;SHT30;65204;48.606;7.598;2023-04-15T02:29:36;9.60;55.49
76384;SHT30;65204;48.606;7.598;2023-04-15T02:30:07;9.60;55.42
76384;SHT30;65204;48.606;7.598;2023-04-15T02:30:38;9.59;55.43
76384;SHT30;65204;48.606;7.598;2023-04-15T02:31:09;9.60;55.52
76384;SHT30;65204;48.606;7.598;2023-04-15T02:31:40;9.60;55.55
76384;SHT30;65204;48.606;7.598;2023-04-15T02:32:12;9.63;55.62
76384;SHT30;65204;48.606;7.598;2023-04-15T02:32:42;9.62;56.73
76384;SHT30;65204;48.606;7.598;2023-04-15T02:33:13;9.59;56.80
76384;SHT30;65204;48.606;7.598;2023-04-15T02:33:44;9.62;57.57
76384;SHT30;65204;48.606;7.598;2023-04-15T02:34:14;9.59;58.11
76384;SHT30;65204;48.606;7.598;2023-04-15T02:34:45;9.59;57.76
76384;SHT30;65204;48.606;7.598;2023-04-15T02:35:15;9.52;57.36
76384;SHT30;65204;48.606;7.598;2023-04-15T02:35:48;9.49;57.14
76384;SHT30;65204;48.606;7.598;2023-04-15T02:36:18;9.52;57.07
76384;SHT30;65204;48.606;7.598;2023-04-15T02:36:50;9.50;57.10
76384;SHT30;65204;48.606;7.598;2023-04-15T02:37:24;9.47;57.35
76384;SHT30;65204;48.606;7.598;2023-04-15T02:37:56;9.49;57.42
76384;SHT30;65204;48.606;7.598;2023-04-15T02:38:27;9.47;57.49
76384;SHT30;65204;48.606;7.598;2023-04-15T02:38:57;9.47;57.36
76384;SHT30;65204;48.606;7.598;2023-04-15T02:39:27;9.46;57.88
76384;SHT30;65204;48.606;7.598;2023-04-15T02:39:58;9.44;58.25
76384;SHT30;65204;48.606;7.598;2023-04-15T02:40:29;9.42;58.53
76384;SHT30;65204;48.606;7.598;2023-04-15T02:40:59;9.42;58.07
76384;SHT30;65204;48.606;7.598;2023-04-15T02:41:29;9.40;57.70
76384;SHT30;65204;48.606;7.598;2023-04-15T02:41:59;9.40;57.66
76384;SHT30;65204;48.606;7.598;2023-04-15T02:42:30;9.39;57.62
76384;SHT30;65204;48.606;7.598;2023-04-15T02:43:01;9.39;57.51
76384;SHT30;65204;48.606;7.598;2023-04-15T02:43:31;9.38;57.86
76384;SHT30;65204;48.606;7.598;2023-04-15T02:44:01;9.36;58.04
76384;SHT30;65204;48.606;7.598;2023-04-15T02:44:32;9.36;57.99
76384;SHT30;65204;48.606;7.598;2023-04-15T02:45:04;9.33;58.10
76384;SHT30;65204;48.606;7.598;2023-04-15T02:45:35;9.35;57.79
76384;SHT30;65204;48.606;7.598;2023-04-15T02:46:05;9.33;57.75
76384;SHT30;65204;48.606;7.598;2023-04-15T02:46:35;9.35;57.78
76384;SHT30;65204;48.606;7.598;2023-04-15T02:47:06;9.33;57.74
76384;SHT30;65204;48.606;7.598;2023-04-15T02:47:36;9.32;57.73
76384;SHT30;65204;48.606;7.598;2023-04-15T02:48:10;9.31;57.89
76384;SHT30;65204;48.606;7.598;2023-04-15T02:48:40;9.31;58.06
76384;SHT30;65204;48.606;7.598;2023-04-15T02:49:11;9.28;58.06
76384;SHT30;65204;48.606;7.598;2023-04-15T02:49:41;9.28;58.09
76384;SHT30;65204;48.606;7.598;2023-04-15T02:50:12;9.28;58.12
76384;SHT30;65204;48.606;7.598;2023-04-15T02:50:42;9.26;58.05
76384;SHT30;65204;48.606;7.598;2023-04-15T02:51:17;9.25;58.16
76384;SHT30;65204;48.606;7.598;2023-04-15T02:51:51;9.21;58.18
76384;SHT30;65204;48.606;7.598;2023-04-15T02:52:21;9.21;58.19
76384;SHT30;65204;48.606;7.598;2023-04-15T02:52:52;9.21;58.22
76384;SHT30;65204;48.606;7.598;2023-04-15T02:53:22;9.21;58.15
76384;SHT30;65204;48.606;7.598;2023-04-15T02:53:52;9.21;58.02
76384;SHT30;65204;48.606;7.598;2023-04-15T02:54:23;9.21;57.91
76384;SHT30;65204;48.606;7.598;2023-04-15T02:54:54;9.21;58.00
76384;SHT30;65204;48.606;7.598;2023-04-15T02:55:29;9.19;57.97
76384;SHT30;65204;48.606;7.598;2023-04-15T02:56:00;9.23;57.88
76384;SHT30;65204;48.606;7.598;2023-04-15T02:56:30;9.21;58.08
76384;SHT30;65204;48.606;7.598;2023-04-15T02:57:00;9.22;57.96
76384;SHT30;65204;48.606;7.598;2023-04-15T02:57:31;9.21;57.86
76384;SHT30;65204;48.606;7.598;2023-04-15T02:58:01;9.22;57.97
76384;SHT30;65204;48.606;7.598;2023-04-15T02:58:32;9.22;57.82
76384;SHT30;65204;48.606;7.598;2023-04-15T02:59:03;9.19;57.79
76384;SHT30;65204;48.606;7.598;2023-04-15T02:59:34;9.21;57.82
76384;SHT30;65204;48.606;7.598;2023-04-15T03:00:05;9.22;57.77
76384;SHT30;65204;48.606;7.598;2023-04-15T03:00:38;9.21;57.80
76384;SHT30;65204;48.606;7.598;2023-04-15T03:01:08;9.21;57.70
76384;SHT30;65204;48.606;7.598;2023-04-15T03:01:39;9.21;57.70
76384;SHT30;65204;48.606;7.598;2023-04-15T03:02:09;9.21;57.79
76384;SHT30;65204;48.606;7.598;2023-04-15T03:02:40;9.19;57.71
76384;SHT30;65204;48.606;7.598;2023-04-15T03:03:11;9.21;57.87
76384;SHT30;65204;48.606;7.598;2023-04-15T03:03:44;9.21;58.73
76384;SHT30;65204;48.606;7.598;2023-04-15T03:04:14;9.19;58.35
76384;SHT30;65204;48.606;7.598;2023-04-15T03:04:45;9.19;57.90
76384;SHT30;65204;48.606;7.598;2023-04-15T03:05:15;9.19;57.81
76384;SHT30;65204;48.606;7.598;2023-04-15T03:05:45;9.21;58.19
76384;SHT30;65204;48.606;7.598;2023-04-15T03:06:16;9.25;58.00
76384;SHT30;65204;48.606;7.598;2023-04-15T03:06:46;9.21;57.94
76384;SHT30;65204;48.606;7.598;2023-04-15T03:07:17;9.19;57.90
76384;SHT30;65204;48.606;7.598;2023-04-15T03:07:47;9.18;57.94
76384;SHT30;65204;48.606;7.598;2023-04-15T03:08:18;9.19;57.90
76384;SHT30;65204;48.606;7.598;2023-04-15T03:08:48;9.21;57.93
76384;SHT30;65204;48.606;7.598;2023-04-15T03:09:19;9.22;58.67
76384;SHT30;65204;48.606;7.598;2023-04-15T03:09:49;9.16;58.38
76384;SHT30;65204;48.606;7.598;2023-04-15T03:10:20;9.16;58.54
76384;SHT30;65204;48.606;7.598;2023-04-15T03:10:51;9.16;58.13
76384;SHT30;65204;48.606;7.598;2023-04-15T03:11:22;9.16;58.23
76384;SHT30;65204;48.606;7.598;2023-04-15T03:11:52;9.15;58.61
76384;SHT30;65204;48.606;7.598;2023-04-15T03:12:23;9.14;58.11
76384;SHT30;65204;48.606;7.598;2023-04-15T03:12:54;9.11;58.28
76384;SHT30;65204;48.606;7.598;2023-04-15T03:13:24;9.12;58.56
76384;SHT30;65204;48.606;7.598;2023-04-15T03:13:55;9.10;58.97
76384;SHT30;65204;48.606;7.598;2023-04-15T03:14:25;9.11;58.97
76384;SHT30;65204;48.606;7.598;2023-04-15T03:14:56;9.10;58.87
76384;SHT30;65204;48.606;7.598;2023-04-15T03:15:26;9.05;58.67
76384;SHT30;65204;48.606;7.598;2023-04-15T03:15:56;9.02;58.53
76384;SHT30;65204;48.606;7.598;2023-04-15T03:16:27;9.01;58.13
76384;SHT30;65204;48.606;7.598;2023-04-15T03:16:57;8.97;58.02
76384;SHT30;65204;48.606;7.598;2023-04-15T03:17:28;8.98;58.10
76384;SHT30;65204;48.606;7.598;2023-04-15T03:17:58;9.00;58.77